Gary, IN

12:26 PM CDT on August 24, 2016 (GMT -0500)
Gary / Chicago | | Change Station
Active Advisory: Flood Warning Active Notice: Public Information Statement

Elev 591 ft 41.62 °N, 87.41 °W | Updated 41 minutes ago

Light Rain
Light Rain
75 °F
Feels Like 75 °F
N
0
Wind Variable Wind from North

Today
High -- | Low -- °F
--% Chance of Precip.
Yesterday
High -- | Low -- °F
Precip. -- in
Pressure 29.99 in
Visibility 5.0 miles
Clouds
Dew Point 73 °F
Humidity 94%
Rainfall 0.00 in
Snow Depth Not available.
6:08 AM 7:34 PM
Waning Gibbous, 55% visible
METAR KGYY 241645Z 00000KT 5SM -RA 24/23 A2999
Pressure 29.99 in
Visibility 5.0 miles
Clouds
Dew Point 73 °F
Humidity 94%
Rainfall 0.00 in
Snow Depth Not available.
6:08 AM 7:34 PM
Waning Gibbous, 55% visible
METAR KGYY 241645Z 00000KT 5SM -RA 24/23 A2999

10-Day Weather Forecast

Almanac

Astronomy

Aug. 24, 2016 Rise Set
Actual Time
Civil Twilight
Nautical Twilight
Astronomical Twilight
Moon
Length of Visible Light
Length of Day
Tomorrow will be .
, % of the Moon is Illuminated

Today's Extremes

State Highs State Lows

Community

WunderPhotos

Upload Photos

1,934,658 photos uploaded!

WunderBlog® & News

Nearby

Air Quality

  Air Quality AQ Index Pollutant
Not available.

Snow Depth

Station Depth Elevation

Earthquake Activity

City Distance Mag. Time & Date
Minimum magnitude displayed is 2.5.

Coastal Water Temperatures

Place Temperature

Stations

Nearby Weather Stations

Station Location Temp. Windchill Dew Point Humidity Wind Precip. Elev Updated Type
                   

Watches & Warnings

Flood Warning
Issued: 9:53 AM CDT Aug. 24, 2016 – National Weather Service

The Flood Warning continues for
the Kankakee River at Shelby.
* Until Tuesday morning.
* At 845 am Wednesday the stage was 10.3 feet.
* Flood stage is 9.0 feet.
* Minor flooding is occurring and minor flooding is forecast.
* Forecast... the river will continue to fall to below flood stage by
early Tuesday morning.
* Impact... at 10.0 feet... flooding affects County and local roads.
Wildwood Estates and Sumava Resorts begin to experience some
flooding.


Lat... Lon 4127 8727 4121 8756 4111 8753 4118 8722